sensor_id;sensor_type;location;lat;lon;timestamp;pressure;altitude;pressure_sealevel;temperature;humidity
53758;BME280;39674;59.860;30.672;2023-10-08T00:02:24;97726.66;;;0.48;100.00
53758;BME280;39674;59.860;30.672;2023-10-08T00:04:54;97685.03;;;0.20;100.00
53758;BME280;39674;59.860;30.672;2023-10-08T00:07:26;97712.47;;;0.40;100.00
53758;BME280;39674;59.860;30.672;2023-10-08T00:09:58;97685.91;;;0.20;100.00
53758;BME280;39674;59.860;30.672;2023-10-08T00:12:30;97777.19;;;0.73;100.00
53758;BME280;39674;59.860;30.672;2023-10-08T00:15:02;97707.13;;;0.27;100.00
53758;BME280;39674;59.860;30.672;2023-10-08T00:17:39;97737.97;;;0.47;100.00
53758;BME280;39674;59.860;30.672;2023-10-08T00:20:13;97751.38;;;0.56;100.00
53758;BME280;39674;59.860;30.672;2023-10-08T00:22:54;97735.75;;;0.41;100.00
53758;BME280;39674;59.860;30.672;2023-10-08T00:25:32;97730.34;;;0.30;100.00
53758;BME280;39674;59.860;30.672;2023-10-08T00:28:01;97723.97;;;0.36;100.00
53758;BME280;39674;59.860;30.672;2023-10-08T00:30:33;97772.25;;;0.54;100.00
53758;BME280;39674;59.860;30.672;2023-10-08T00:33:08;97751.31;;;0.41;100.00
53758;BME280;39674;59.860;30.672;2023-10-08T00:35:39;97779.56;;;0.62;100.00
53758;BME280;39674;59.860;30.672;2023-10-08T00:38:22;97685.53;;;-0.04;100.00
53758;BME280;39674;59.860;30.672;2023-10-08T00:41:01;97790.13;;;0.59;100.00
53758;BME280;39674;59.860;30.672;2023-10-08T00:43:31;97785.78;;;0.59;100.00
53758;BME280;39674;59.860;30.672;2023-10-08T00:46:09;97697.03;;;-0.08;100.00
53758;BME280;39674;59.860;30.672;2023-10-08T00:49:01;97705.22;;;0.00;100.00
53758;BME280;39674;59.860;30.672;2023-10-08T00:51:54;97695.91;;;-0.04;100.00
53758;BME280;39674;59.860;30.672;2023-10-08T00:54:54;97796.78;;;0.48;100.00
53758;BME280;39674;59.860;30.672;2023-10-08T00:57:36;97770.03;;;0.32;100.00
53758;BME280;39674;59.860;30.672;2023-10-08T01:00:11;97765.00;;;0.29;100.00
53758;BME280;39674;59.860;30.672;2023-10-08T01:02:55;97709.06;;;-0.07;100.00
53758;BME280;39674;59.860;30.672;2023-10-08T01:05:28;97697.38;;;-0.14;100.00
53758;BME280;39674;59.860;30.672;2023-10-08T01:08:19;97720.53;;;-0.11;100.00
53758;BME280;39674;59.860;30.672;2023-10-08T01:11:25;97770.28;;;0.27;100.00
53758;BME280;39674;59.860;30.672;2023-10-08T01:14:01;97754.75;;;0.11;100.00
53758;BME280;39674;59.860;30.672;2023-10-08T01:16:35;97742.47;;;-0.01;100.00
53758;BME280;39674;59.860;30.672;2023-10-08T01:19:08;97727.25;;;-0.07;100.00
53758;BME280;39674;59.860;30.672;2023-10-08T01:21:41;97807.63;;;0.41;100.00
53758;BME280;39674;59.860;30.672;2023-10-08T01:24:14;97780.16;;;0.21;100.00
53758;BME280;39674;59.860;30.672;2023-10-08T01:26:47;97716.78;;;-0.22;100.00
53758;BME280;39674;59.860;30.672;2023-10-08T01:29:19;97778.94;;;0.12;100.00
53758;BME280;39674;59.860;30.672;2023-10-08T01:31:49;97715.44;;;-0.29;100.00
53758;BME280;39674;59.860;30.672;2023-10-08T01:34:23;97720.63;;;-0.29;100.00
53758;BME280;39674;59.860;30.672;2023-10-08T01:36:59;97821.00;;;0.33;100.00
53758;BME280;39674;59.860;30.672;2023-10-08T01:39:40;97794.41;;;0.13;100.00
53758;BME280;39674;59.860;30.672;2023-10-08T01:42:10;97816.22;;;0.41;100.00
53758;BME280;39674;59.860;30.672;2023-10-08T01:44:47;97803.72;;;0.18;100.00
53758;BME280;39674;59.860;30.672;2023-10-08T01:47:20;97749.41;;;-0.18;100.00
53758;BME280;39674;59.860;30.672;2023-10-08T01:49:54;97818.03;;;0.25;100.00
53758;BME280;39674;59.860;30.672;2023-10-08T01:52:38;97804.78;;;0.13;100.00
53758;BME280;39674;59.860;30.672;2023-10-08T01:55:15;97826.56;;;0.27;100.00
53758;BME280;39674;59.860;30.672;2023-10-08T01:57:54;97772.66;;;-0.16;100.00
53758;BME280;39674;59.860;30.672;2023-10-08T02:00:26;97832.25;;;0.34;100.00
53758;BME280;39674;59.860;30.672;2023-10-08T02:03:02;97737.38;;;-0.35;100.00
53758;BME280;39674;59.860;30.672;2023-10-08T02:05:48;97758.72;;;-0.29;100.00
53758;BME280;39674;59.860;30.672;2023-10-08T02:08:37;97782.22;;;-0.17;100.00
53758;BME280;39674;59.860;30.672;2023-10-08T02:11:11;97755.78;;;-0.39;100.00
53758;BME280;39674;59.860;30.672;2023-10-08T02:13:46;97785.91;;;-0.21;100.00
53758;BME280;39674;59.860;30.672;2023-10-08T02:16:24;97840.78;;;0.20;100.00
53758;BME280;39674;59.860;30.672;2023-10-08T02:18:56;97744.66;;;-0.41;100.00
53758;BME280;39674;59.860;30.672;2023-10-08T02:21:31;97771.75;;;-0.31;100.00
53758;BME280;39674;59.860;30.672;2023-10-08T02:24:01;97853.03;;;0.18;100.00
53758;BME280;39674;59.860;30.672;2023-10-08T02:26:31;97801.16;;;-0.14;100.00
53758;BME280;39674;59.860;30.672;2023-10-08T02:29:08;97849.19;;;0.25;100.00
53758;BME280;39674;59.860;30.672;2023-10-08T02:31:46;97806.34;;;-0.14;100.00
53758;BME280;39674;59.860;30.672;2023-10-08T02:34:16;97778.53;;;-0.28;100.00
53758;BME280;39674;59.860;30.672;2023-10-08T02:36:46;97764.63;;;-0.43;100.00
53758;BME280;39674;59.860;30.672;2023-10-08T02:39:24;97774.09;;;-0.42;100.00
53758;BME280;39674;59.860;30.672;2023-10-08T02:42:09;97852.59;;;0.09;100.00
53758;BME280;39674;59.860;30.672;2023-10-08T02:44:44;97781.53;;;-0.36;100.00
53758;BME280;39674;59.860;30.672;2023-10-08T02:47:15;97802.53;;;-0.25;100.00
53758;BME280;39674;59.860;30.672;2023-10-08T02:50:54;97782.88;;;-0.45;100.00
53758;BME280;39674;59.860;30.672;2023-10-08T02:53:52;97883.09;;;0.22;100.00
53758;BME280;39674;59.860;30.672;2023-10-08T02:56:53;97880.50;;;0.22;100.00
53758;BME280;39674;59.860;30.672;2023-10-08T03:00:28;97858.72;;;0.08;100.00
53758;BME280;39674;59.860;30.672;2023-10-08T03:06:08;97788.84;;;-0.43;100.00
53758;BME280;39674;59.860;30.672;2023-10-08T03:09:17;97802.47;;;-0.39;100.00
53758;BME280;39674;59.860;30.672;2023-10-08T03:12:26;97798.94;;;-0.38;100.00
53758;BME280;39674;59.860;30.672;2023-10-08T03:15:18;97903.03;;;0.21;100.00
53758;BME280;39674;59.860;30.672;2023-10-08T03:18:01;97824.72;;;-0.35;100.00
53758;BME280;39674;59.860;30.672;2023-10-08T03:20:53;97818.03;;;-0.39;100.00
53758;BME280;39674;59.860;30.672;2023-10-08T03:23:58;97919.34;;;0.23;100.00
53758;BME280;39674;59.860;30.672;2023-10-08T03:26:48;97826.41;;;-0.34;100.00
53758;BME280;39674;59.860;30.672;2023-10-08T03:29:26;97835.25;;;-0.38;100.00
53758;BME280;39674;59.860;30.672;2023-10-08T03:32:03;97901.09;;;0.09;100.00
53758;BME280;39674;59.860;30.672;2023-10-08T03:34:34;97895.56;;;-0.01;100.00
53758;BME280;39674;59.860;30.672;2023-10-08T03:37:18;97838.91;;;-0.42;100.00
53758;BME280;39674;59.860;30.672;2023-10-08T03:40:18;97859.78;;;-0.28;100.00
53758;BME280;39674;59.860;30.672;2023-10-08T03:43:20;97942.78;;;0.22;100.00
53758;BME280;39674;59.860;30.672;2023-10-08T03:46:06;97920.28;;;0.06;100.00
53758;BME280;39674;59.860;30.672;2023-10-08T03:49:00;97845.94;;;-0.44;100.00
53758;BME280;39674;59.860;30.672;2023-10-08T03:52:05;97958.38;;;0.22;100.00
53758;BME280;39674;59.860;30.672;2023-10-08T03:55:19;97863.19;;;-0.43;100.00
53758;BME280;39674;59.860;30.672;2023-10-08T03:58:15;97933.03;;;-0.07;100.00
53758;BME280;39674;59.860;30.672;2023-10-08T04:01:11;97890.78;;;-0.42;100.00
53758;BME280;39674;59.860;30.672;2023-10-08T04:04:34;97892.28;;;-0.38;100.00
53758;BME280;39674;59.860;30.672;2023-10-08T04:08:33;97900.34;;;-0.43;100.00
53758;BME280;39674;59.860;30.672;2023-10-08T04:12:22;97897.38;;;-0.53;100.00
53758;BME280;39674;59.860;30.672;2023-10-08T04:15:18;97909.84;;;-0.43;100.00
53758;BME280;39674;59.860;30.672;2023-10-08T04:33:12;98037.44;;;0.16;100.00
53758;BME280;39674;59.860;30.672;2023-10-08T04:36:33;97927.56;;;-0.52;100.00
53758;BME280;39674;59.860;30.672;2023-10-08T04:39:24;97998.13;;;-0.11;100.00
53758;BME280;39674;59.860;30.672;2023-10-08T04:43:27;97952.13;;;-0.41;100.00
53758;BME280;39674;59.860;30.672;2023-10-08T05:04:12;97991.00;;;-0.41;100.00
53758;BME280;39674;59.860;30.672;2023-10-08T05:07:51;97991.00;;;-0.41;100.00
53758;BME280;39674;59.860;30.672;2023-10-08T05:45:06;98065.91;;;-0.35;100.00
53758;BME280;39674;59.860;30.672;2023-10-08T06:12:45;98121.09;;;-0.31;100.00
53758;BME280;39674;59.860;30.672;2023-10-08T06:30:42;98200.50;;;0.08;100.00
53758;BME280;39674;59.860;30.672;2023-10-08T06:45:19;98278.56;;;0.40;100.00
53758;BME280;39674;59.860;30.672;2023-10-08T06:48:32;98251.69;;;0.04;100.00
53758;BME280;39674;59.860;30.672;2023-10-08T06:51:18;98265.84;;;0.16;100.00
53758;BME280;39674;59.860;30.672;2023-10-08T06:54:15;98305.03;;;0.46;100.00
53758;BME280;39674;59.860;30.672;2023-10-08T06:56:53;98229.97;;;-0.12;100.00
53758;BME280;39674;59.860;30.672;2023-10-08T07:00:07;98319.72;;;0.47;100.00
53758;BME280;39674;59.860;30.672;2023-10-08T07:14:33;98272.00;;;0.13;100.00
53758;BME280;39674;59.860;30.672;2023-10-08T07:29:19;98380.72;;;0.75;100.00
53758;BME280;39674;59.860;30.672;2023-10-08T07:32:24;98391.75;;;0.80;100.00
53758;BME280;39674;59.860;30.672;2023-10-08T07:35:09;98317.72;;;0.35;100.00
53758;BME280;39674;59.860;30.672;2023-10-08T07:37:56;98374.31;;;0.65;100.00
53758;BME280;39674;59.860;30.672;2023-10-08T07:40:32;98415.44;;;0.92;100.00
53758;BME280;39674;59.860;30.672;2023-10-08T07:50:40;98427.09;;;1.02;100.00
53758;BME280;39674;59.860;30.672;2023-10-08T07:53:20;98413.91;;;0.88;100.00
53758;BME280;39674;59.860;30.672;2023-10-08T07:55:50;98407.03;;;0.87;100.00
53758;BME280;39674;59.860;30.672;2023-10-08T07:58:19;98455.69;;;1.20;100.00
53758;BME280;39674;59.860;30.672;2023-10-08T08:00:53;98438.88;;;1.09;100.00
53758;BME280;39674;59.860;30.672;2023-10-08T08:03:34;98395.94;;;0.83;100.00
53758;BME280;39674;59.860;30.672;2023-10-08T08:14:19;98419.75;;;1.10;100.00
53758;BME280;39674;59.860;30.672;2023-10-08T08:17:54;98429.69;;;1.20;100.00
53758;BME280;39674;59.860;30.672;2023-10-08T08:20:57;98441.78;;;1.21;100.00
53758;BME280;39674;59.860;30.672;2023-10-08T08:24:05;98445.16;;;1.23;100.00
53758;BME280;39674;59.860;30.672;2023-10-08T08:26:53;98485.53;;;1.48;100.00
53758;BME280;39674;59.860;30.672;2023-10-08T08:29:51;98470.56;;;1.35;100.00
53758;BME280;39674;59.860;30.672;2023-10-08T08:32:23;98478.50;;;1.32;100.00
53758;BME280;39674;59.860;30.672;2023-10-08T08:34:57;98477.66;;;1.32;100.00
53758;BME280;39674;59.860;30.672;2023-10-08T08:37:30;98489.66;;;1.34;100.00
53758;BME280;39674;59.860;30.672;2023-10-08T08:40:09;98489.81;;;1.31;100.00
53758;BME280;39674;59.860;30.672;2023-10-08T08:42:47;98504.50;;;1.32;100.00
53758;BME280;39674;59.860;30.672;2023-10-08T08:45:29;98535.66;;;1.51;100.00
53758;BME280;39674;59.860;30.672;2023-10-08T08:48:15;98521.66;;;1.36;100.00
53758;BME280;39674;59.860;30.672;2023-10-08T08:51:03;98519.97;;;1.35;100.00
53758;BME280;39674;59.860;30.672;2023-10-08T08:53:45;98595.13;;;1.76;100.00
53758;BME280;39674;59.860;30.672;2023-10-08T08:56:37;98588.28;;;1.75;100.00
53758;BME280;39674;59.860;30.672;2023-10-08T08:59:36;98543.16;;;1.40;100.00
53758;BME280;39674;59.860;30.672;2023-10-08T09:05:41;98619.34;;;1.79;100.00
53758;BME280;39674;59.860;30.672;2023-10-08T09:08:21;98663.47;;;1.99;100.00
53758;BME280;39674;59.860;30.672;2023-10-08T09:10:51;98674.00;;;1.96;100.00
53758;BME280;39674;59.860;30.672;2023-10-08T09:13:29;98678.16;;;2.00;100.00
53758;BME280;39674;59.860;30.672;2023-10-08T09:16:28;98695.50;;;2.01;100.00
53758;BME280;39674;59.860;30.672;2023-10-08T09:19:09;98642.44;;;1.67;100.00
53758;BME280;39674;59.860;30.672;2023-10-08T09:22:05;98711.03;;;2.03;100.00
53758;BME280;39674;59.860;30.672;2023-10-08T09:25:31;98638.75;;;1.54;100.00
53758;BME280;39674;59.860;30.672;2023-10-08T09:28:32;98651.59;;;1.57;100.00
53758;BME280;39674;59.860;30.672;2023-10-08T09:31:53;98639.94;;;1.47;100.00
53758;BME280;39674;59.860;30.672;2023-10-08T09:38:11;98660.47;;;1.53;100.00
53758;BME280;39674;59.860;30.672;2023-10-08T09:41:07;98689.28;;;1.67;100.00
53758;BME280;39674;59.860;30.672;2023-10-08T09:43:59;98758.44;;;2.09;100.00
53758;BME280;39674;59.860;30.672;2023-10-08T09:47:16;98669.06;;;1.55;100.00
53758;BME280;39674;59.860;30.672;2023-10-08T09:49:47;98674.09;;;1.58;100.00
53758;BME280;39674;59.860;30.672;2023-10-08T09:52:39;98770.19;;;2.18;100.00
53758;BME280;39674;59.860;30.672;2023-10-08T09:55:35;98744.97;;;2.01;100.00
53758;BME280;39674;59.860;30.672;2023-10-08T09:58:27;98700.31;;;1.72;100.00
53758;BME280;39674;59.860;30.672;2023-10-08T10:01:26;98813.03;;;2.30;100.00
53758;BME280;39674;59.860;30.672;2023-10-08T10:04:50;98725.28;;;1.76;100.00
53758;BME280;39674;59.860;30.672;2023-10-08T10:07:24;98803.75;;;2.24;100.00
53758;BME280;39674;59.860;30.672;2023-10-08T10:10:44;98738.09;;;1.81;100.00
53758;BME280;39674;59.860;30.672;2023-10-08T10:13:34;98818.53;;;2.24;100.00
53758;BME280;39674;59.860;30.672;2023-10-08T10:16:41;98768.63;;;1.77;100.00
53758;BME280;39674;59.860;30.672;2023-10-08T10:22:35;98765.81;;;1.82;100.00
53758;BME280;39674;59.860;30.672;2023-10-08T10:25:39;98830.78;;;2.22;100.00
53758;BME280;39674;59.860;30.672;2023-10-08T10:28:31;98842.06;;;2.22;100.00
53758;BME280;39674;59.860;30.672;2023-10-08T10:31:03;98837.44;;;2.10;100.00
53758;BME280;39674;59.860;30.672;2023-10-08T10:33:35;98856.63;;;2.27;100.00
53758;BME280;39674;59.860;30.672;2023-10-08T10:36:17;98833.63;;;2.17;100.00
53758;BME280;39674;59.860;30.672;2023-10-08T10:38:57;98853.47;;;2.20;100.00
53758;BME280;39674;59.860;30.672;2023-10-08T10:41:45;98911.53;;;2.60;100.00
53758;BME280;39674;59.860;30.672;2023-10-08T10:44:38;98848.25;;;2.20;100.00
53758;BME280;39674;59.860;30.672;2023-10-08T10:47:09;98851.63;;;2.22;100.00
53758;BME280;39674;59.860;30.672;2023-10-08T10:50:14;98890.47;;;2.46;100.00
53758;BME280;39674;59.860;30.672;2023-10-08T10:53:25;98856.56;;;2.28;100.00
53758;BME280;39674;59.860;30.672;2023-10-08T10:56:27;98933.47;;;2.73;100.00
53758;BME280;39674;59.860;30.672;2023-10-08T10:59:28;98848.38;;;2.17;100.00
53758;BME280;39674;59.860;30.672;2023-10-08T11:02:30;98856.28;;;2.15;100.00
53758;BME280;39674;59.860;30.672;2023-10-08T11:05:25;98908.78;;;2.44;100.00
53758;BME280;39674;59.860;30.672;2023-10-08T11:08:35;98919.75;;;2.51;100.00
53758;BME280;39674;59.860;30.672;2023-10-08T11:11:17;98889.16;;;2.18;100.00
53758;BME280;39674;59.860;30.672;2023-10-08T11:13:56;98941.69;;;2.47;100.00
53758;BME280;39674;59.860;30.672;2023-10-08T11:16:58;98955.25;;;2.53;100.00
53758;BME280;39674;59.860;30.672;2023-10-08T11:24:00;98914.13;;;2.22;100.00
53758;BME280;39674;59.860;30.672;2023-10-08T11:27:07;99017.53;;;2.79;100.00
53758;BME280;39674;59.860;30.672;2023-10-08T11:30:09;98934.28;;;2.18;100.00
53758;BME280;39674;59.860;30.672;2023-10-08T11:34:15;98932.72;;;2.14;100.00
53758;BME280;39674;59.860;30.672;2023-10-08T11:37:18;98938.91;;;2.12;100.00
53758;BME280;39674;59.860;30.672;2023-10-08T11:40:48;98962.88;;;2.20;100.00
53758;BME280;39674;59.860;30.672;2023-10-08T11:43:39;99001.91;;;2.40;100.00
53758;BME280;39674;59.860;30.672;2023-10-08T11:47:30;98972.84;;;2.10;100.00
53758;BME280;39674;59.860;30.672;2023-10-08T11:54:05;98981.00;;;2.02;100.00
53758;BME280;39674;59.860;30.672;2023-10-08T11:57:14;99072.19;;;2.61;100.00
53758;BME280;39674;59.860;30.672;2023-10-08T12:00:54;99097.03;;;2.70;100.00
53758;BME280;39674;59.860;30.672;2023-10-08T12:03:38;99061.75;;;2.42;100.00
53758;BME280;39674;59.860;30.672;2023-10-08T12:10:29;99088.09;;;2.55;100.00
53758;BME280;39674;59.860;30.672;2023-10-08T12:13:11;99128.44;;;2.67;100.00
53758;BME280;39674;59.860;30.672;2023-10-08T12:15:46;99037.97;;;2.10;100.00
53758;BME280;39674;59.860;30.672;2023-10-08T12:18:36;99031.25;;;2.04;100.00
53758;BME280;39674;59.860;30.672;2023-10-08T12:21:31;99144.97;;;2.66;100.00
53758;BME280;39674;59.860;30.672;2023-10-08T12:24:17;99060.53;;;2.09;100.00
53758;BME280;39674;59.860;30.672;2023-10-08T12:26:52;99160.56;;;2.67;100.00
53758;BME280;39674;59.860;30.672;2023-10-08T12:29:22;99132.19;;;2.40;100.00
53758;BME280;39674;59.860;30.672;2023-10-08T12:31:56;99166.69;;;2.66;100.00
53758;BME280;39674;59.860;30.672;2023-10-08T12:34:42;99078.00;;;2.07;100.00
53758;BME280;39674;59.860;30.672;2023-10-08T12:38:18;99104.78;;;2.11;100.00
53758;BME280;39674;59.860;30.672;2023-10-08T12:41:13;99161.22;;;2.52;100.00
53758;BME280;39674;59.860;30.672;2023-10-08T12:44:41;99155.38;;;2.47;100.00
53758;BME280;39674;59.860;30.672;2023-10-08T12:47:41;99100.53;;;2.08;100.00
53758;BME280;39674;59.860;30.672;2023-10-08T12:51:06;99196.22;;;2.67;100.00
53758;BME280;39674;59.860;30.672;2023-10-08T12:54:15;99128.25;;;2.09;100.00
53758;BME280;39674;59.860;30.672;2023-10-08T12:57:26;99169.75;;;2.35;100.00
53758;BME280;39674;59.860;30.672;2023-10-08T13:04:13;99170.34;;;2.21;100.00
53758;BME280;39674;59.860;30.672;2023-10-08T13:07:51;99242.94;;;2.71;100.00
53758;BME280;39674;59.860;30.672;2023-10-08T13:10:54;99197.59;;;2.34;100.00
53758;BME280;39674;59.860;30.672;2023-10-08T13:13:35;99175.88;;;2.13;100.00
53758;BME280;39674;59.860;30.672;2023-10-08T13:16:46;99261.31;;;2.68;100.00
53758;BME280;39674;59.860;30.672;2023-10-08T13:20:19;99175.13;;;2.09;100.00
53758;BME280;39674;59.860;30.672;2023-10-08T13:26:54;99199.53;;;2.08;100.00
53758;BME280;39674;59.860;30.672;2023-10-08T13:30:01;99295.59;;;2.59;100.00
53758;BME280;39674;59.860;30.672;2023-10-08T13:33:14;99208.59;;;1.98;100.00
53758;BME280;39674;59.860;30.672;2023-10-08T13:36:08;99270.66;;;2.31;100.00
53758;BME280;39674;59.860;30.672;2023-10-08T13:39:04;99267.16;;;2.32;100.00
53758;BME280;39674;59.860;30.672;2023-10-08T13:43:16;99243.84;;;2.07;100.00
53758;BME280;39674;59.860;30.672;2023-10-08T13:46:57;99227.88;;;1.94;100.00
53758;BME280;39674;59.860;30.672;2023-10-08T13:50:15;99244.69;;;2.07;100.00
53758;BME280;39674;59.860;30.672;2023-10-08T13:56:57;99284.91;;;2.22;100.00
53758;BME280;39674;59.860;30.672;2023-10-08T14:00:05;99353.34;;;2.70;100.00
53758;BME280;39674;59.860;30.672;2023-10-08T14:03:37;99265.22;;;1.93;100.00
53758;BME280;39674;59.860;30.672;2023-10-08T14:07:26;99279.31;;;2.09;100.00
53758;BME280;39674;59.860;30.672;2023-10-08T14:10:53;99285.56;;;2.05;100.00
53758;BME280;39674;59.860;30.672;2023-10-08T14:14:16;99351.31;;;2.34;100.00
53758;BME280;39674;59.860;30.672;2023-10-08T14:16:55;99309.81;;;2.07;100.00
53758;BME280;39674;59.860;30.672;2023-10-08T14:23:20;99315.78;;;2.09;100.00
53758;BME280;39674;59.860;30.672;2023-10-08T14:26:44;99322.94;;;2.04;100.00
53758;BME280;39674;59.860;30.672;2023-10-08T14:30:35;99334.81;;;2.12;100.00
53758;BME280;39674;59.860;30.672;2023-10-08T15:13:17;99417.78;;;1.99;100.00
53758;BME280;39674;59.860;30.672;2023-10-08T15:17:47;99516.38;;;2.57;100.00
53758;BME280;39674;59.860;30.672;2023-10-08T15:46:20;99533.03;;;2.29;100.00
53758;BME280;39674;59.860;30.672;2023-10-08T15:50:05;99531.38;;;2.27;100.00
53758;BME280;39674;59.860;30.672;2023-10-08T15:53:36;99507.78;;;2.06;100.00
53758;BME280;39674;59.860;30.672;2023-10-08T16:08:18;99540.13;;;2.00;100.00
53758;BME280;39674;59.860;30.672;2023-10-08T16:11:02;99541.03;;;1.99;100.00
53758;BME280;39674;59.860;30.672;2023-10-08T16:13:38;99543.53;;;2.02;100.00
53758;BME280;39674;59.860;30.672;2023-10-08T16:16:32;99572.91;;;2.06;100.00
53758;BME280;39674;59.860;30.672;2023-10-08T16:20:35;99548.25;;;1.91;100.00
53758;BME280;39674;59.860;30.672;2023-10-08T16:23:26;99614.19;;;2.18;100.00
53758;BME280;39674;59.860;30.672;2023-10-08T16:26:18;99664.66;;;2.41;100.00
53758;BME280;39674;59.860;30.672;2023-10-08T16:30:49;99584.13;;;1.83;100.00
53758;BME280;39674;59.860;30.672;2023-10-08T16:34:11;99583.59;;;1.73;100.00
53758;BME280;39674;59.860;30.672;2023-10-08T16:46:19;99702.50;;;2.26;100.00
53758;BME280;39674;59.860;30.672;2023-10-08T16:49:06;99606.38;;;1.66;100.00
53758;BME280;39674;59.860;30.672;2023-10-08T16:52:41;99610.66;;;1.67;100.00
53758;BME280;39674;59.860;30.672;2023-10-08T16:54:52;99613.88;;;1.75;100.00
53758;BME280;39674;59.860;30.672;2023-10-08T16:57:32;99608.75;;;1.72;100.00
53758;BME280;39674;59.860;30.672;2023-10-08T17:00:03;99697.38;;;2.23;100.00
53758;BME280;39674;59.860;30.672;2023-10-08T17:02:44;99708.69;;;2.22;100.00
53758;BME280;39674;59.860;30.672;2023-10-08T17:05:29;99706.91;;;2.24;100.00
53758;BME280;39674;59.860;30.672;2023-10-08T17:08:03;99671.94;;;2.04;100.00
53758;BME280;39674;59.860;30.672;2023-10-08T17:10:44;99638.22;;;1.74;100.00
53758;BME280;39674;59.860;30.672;2023-10-08T17:13:19;99653.56;;;1.82;100.00
53758;BME280;39674;59.860;30.672;2023-10-08T17:15:52;99689.38;;;2.02;100.00
53758;BME280;39674;59.860;30.672;2023-10-08T17:18:26;99718.22;;;2.23;100.00
53758;BME280;39674;59.860;30.672;2023-10-08T17:21:02;99686.06;;;1.97;100.00
53758;BME280;39674;59.860;30.672;2023-10-08T17:23:38;99674.63;;;2.03;100.00
53758;BME280;39674;59.860;30.672;2023-10-08T17:26:13;99725.25;;;2.21;100.00
53758;BME280;39674;59.860;30.672;2023-10-08T17:28:42;99685.19;;;1.98;100.00
53758;BME280;39674;59.860;30.672;2023-10-08T17:31:21;99684.56;;;1.90;100.00
53758;BME280;39674;59.860;30.672;2023-10-08T17:34:10;99653.13;;;1.69;100.00
53758;BME280;39674;59.860;30.672;2023-10-08T17:37:20;99660.63;;;1.79;100.00
53758;BME280;39674;59.860;30.672;2023-10-08T17:40:37;99732.16;;;2.22;100.00
53758;BME280;39674;59.860;30.672;2023-10-08T17:43:15;99732.28;;;2.19;100.00
53758;BME280;39674;59.860;30.672;2023-10-08T17:45:48;99727.06;;;2.19;100.00
53758;BME280;39674;59.860;30.672;2023-10-08T17:48:34;99733.84;;;2.23;100.00
53758;BME280;39674;59.860;30.672;2023-10-08T17:51:30;99660.94;;;1.69;100.00
53758;BME280;39674;59.860;30.672;2023-10-08T17:54:03;99649.03;;;1.62;100.00
53758;BME280;39674;59.860;30.672;2023-10-08T17:57:01;99650.63;;;1.66;100.00
53758;BME280;39674;59.860;30.672;2023-10-08T17:59:47;99652.06;;;1.75;100.00
53758;BME280;39674;59.860;30.672;2023-10-08T18:02:31;99656.44;;;1.74;100.00
53758;BME280;39674;59.860;30.672;2023-10-08T18:05:21;99658.91;;;1.77;100.00
53758;BME280;39674;59.860;30.672;2023-10-08T18:08:21;99736.25;;;2.31;100.00
53758;BME280;39674;59.860;30.672;2023-10-08T18:11:15;99650.53;;;1.69;100.00
53758;BME280;39674;59.860;30.672;2023-10-08T18:14:32;99720.13;;;2.18;100.00
53758;BME280;39674;59.860;30.672;2023-10-08T18:17:17;99659.03;;;1.74;100.00
53758;BME280;39674;59.860;30.672;2023-10-08T18:19:49;99694.09;;;1.91;100.00
53758;BME280;39674;59.860;30.672;2023-10-08T18:22:18;99694.97;;;1.90;100.00
53758;BME280;39674;59.860;30.672;2023-10-08T18:25:00;99769.09;;;2.35;100.00
53758;BME280;39674;59.860;30.672;2023-10-08T18:27:43;99671.25;;;1.72;100.00
53758;BME280;39674;59.860;30.672;2023-10-08T18:30:28;99716.16;;;2.06;100.00
53758;BME280;39674;59.860;30.672;2023-10-08T18:33:12;99723.16;;;2.05;100.00
53758;BME280;39674;59.860;30.672;2023-10-08T18:35:47;99691.88;;;1.79;100.00
53758;BME280;39674;59.860;30.672;2023-10-08T18:38:26;99737.88;;;2.06;100.00
53758;BME280;39674;59.860;30.672;2023-10-08T18:44:34;99754.34;;;2.07;100.00
53758;BME280;39674;59.860;30.672;2023-10-08T18:47:17;99796.94;;;2.34;100.00
53758;BME280;39674;59.860;30.672;2023-10-08T18:50:21;99813.00;;;2.47;100.00
53758;BME280;39674;59.860;30.672;2023-10-08T18:53:06;99789.78;;;2.13;100.00
53758;BME280;39674;59.860;30.672;2023-10-08T18:56:04;99712.00;;;1.73;100.00
53758;BME280;39674;59.860;30.672;2023-10-08T18:58:58;99739.97;;;1.95;100.00
53758;BME280;39674;59.860;30.672;2023-10-08T19:01:43;99731.56;;;1.87;100.00
53758;BME280;39674;59.860;30.672;2023-10-08T19:04:13;99817.97;;;2.28;100.00
53758;BME280;39674;59.860;30.672;2023-10-08T19:06:42;99732.78;;;1.75;100.00
53758;BME280;39674;59.860;30.672;2023-10-08T19:09:40;99764.41;;;1.91;100.00
53758;BME280;39674;59.860;30.672;2023-10-08T19:13:06;99805.91;;;2.24;100.00
53758;BME280;39674;59.860;30.672;2023-10-08T19:16:18;99780.19;;;2.13;100.00
53758;BME280;39674;59.860;30.672;2023-10-08T19:26:33;99740.34;;;1.83;100.00
53758;BME280;39674;59.860;30.672;2023-10-08T19:29:13;99773.53;;;2.04;100.00
53758;BME280;39674;59.860;30.672;2023-10-08T19:32:39;99822.06;;;2.35;100.00
53758;BME280;39674;59.860;30.672;2023-10-08T19:36:15;99827.94;;;2.42;100.00
53758;BME280;39674;59.860;30.672;2023-10-08T19:38:47;99793.19;;;2.15;100.00
53758;BME280;39674;59.860;30.672;2023-10-08T19:41:28;99748.00;;;1.89;100.00
53758;BME280;39674;59.860;30.672;2023-10-08T19:44:18;99752.28;;;1.90;100.00
53758;BME280;39674;59.860;30.672;2023-10-08T19:46:56;99749.84;;;1.84;100.00
53758;BME280;39674;59.860;30.672;2023-10-08T19:50:43;99816.16;;;2.30;100.00
53758;BME280;39674;59.860;30.672;2023-10-08T19:53:22;99798.41;;;2.15;100.00
53758;BME280;39674;59.860;30.672;2023-10-08T21:24:06;99833.50;;;2.03;100.00
53758;BME280;39674;59.860;30.672;2023-10-08T21:33:58;99941.25;;;2.59;100.00